Overseas Santorini — WOSI — position and weather

sailwx.info

Track history (hours):
 
Tides and Currents Weather Stations Pressure Air Temp Water Temp Dewpoint Dewpoint Depression Visibility Wind Speed Wind Dir Waves Ship Positions

Overseas Santorini

Owner: Overseas Santorini, Tampa, FL. More information available from US FCC via Universal Licensing System and Coast Guard Vessel Documentation Center.

Last reported at 2018-Feb-20 13:00 UTC. Time now 2018-Feb-21 23:32 UTC.
Position N 26°30' W 070°18'.

Length 183 m; draft 12 m.

Type: Tanker. MMSI: 303270000.

Wind from 190 at 26 knots

Barometer 1026.3 mb
Air temperature 22.0 ° C
Visibility: greater than 10.8 NM
Dewpoint 17.5 ° C
Water temperature 26.0 ° C

Date/timePositionNaut miles runAvg speedWind from/ knotsBaromVisibWave heightAir tempDewpointWater temp
2018-Feb-20 13:00N 26°30' W 070°18'   190 / 261026.310.8 22.017.526.0
2018-Feb-17 14:00N 25°12' W 083°18'148 5.5 360 / 161020.110.8 20.016.926.0
2018-Feb-16 11:22N 27°39' W 083°01'0 0.6
2018-Feb-16 11:00N 27°39' W 083°01'4 7.2
2018-Feb-16 10:30N 27°36' W 083°04'5 8.7
2018-Feb-16 09:57N 27°35' W 083°10'4 9.4
2018-Feb-16 09:30N 27°36' W 083°14'6 9.1
2018-Feb-16 08:52N 27°37' W 083°21'49011.7
2018-Feb-14 15:00N 25°18' W 092°06'26911.0 220 / 201023.110.8 21.018.024.0
2018-Feb-13 14:28N 27°30' W 096°28'611.4
2018-Feb-13 13:59N 27°33' W 096°33'511.3
2018-Feb-13 13:30N 27°35' W 096°39'611.4
2018-Feb-13 12:59N 27°39' W 096°44'511.4
2018-Feb-13 12:30N 27°41' W 096°49'611.7
2018-Feb-13 11:58N 27°45' W 096°55'510.6
2018-Feb-13 11:29N 27°49' W 096°59'5 9.8
2018-Feb-13 10:59N 27°50' W 097°05'5 9.9
2018-Feb-13 10:30N 27°49' W 097°10'510.4
2018-Feb-13 10:00N 27°49' W 097°16'510.3
2018-Feb-13 09:29N 27°49' W 097°22'3 5.9
2018-Feb-13 08:57N 27°49' W 097°25'  
Track history (hours):
 
Tides and Currents Weather Stations Pressure Air Temp Water Temp Dewpoint Dewpoint Depression Visibility Wind Speed Wind Dir Waves Ship Positions

Overseas Santorini

Owner: Overseas Santorini, Tampa, FL. More information available from US FCC via Universal Licensing System and Coast Guard Vessel Documentation Center.

Last reported at 2018-Feb-20 13:00 UTC. Time now 2018-Feb-21 23:32 UTC.
Position N 26°30' W 070°18'.

Length 183 m; draft 12 m.

Type: Tanker. MMSI: 303270000.

Wind from 190 at 26 knots

Barometer 1026.3 mb
Air temperature 22.0 ° C
Visibility: greater than 10.8 NM
Dewpoint 17.5 ° C
Water temperature 26.0 ° C

Date/timePositionNaut miles runAvg speedWind from/ knotsBaromVisibWave heightAir tempDewpointWater temp
2018-Feb-20 13:00N 26°30' W 070°18'   190 / 261026.310.8 22.017.526.0
2018-Feb-17 14:00N 25°12' W 083°18'148 5.5 360 / 161020.110.8 20.016.926.0
2018-Feb-16 11:22N 27°39' W 083°01'0 0.6
2018-Feb-16 11:00N 27°39' W 083°01'4 7.2
2018-Feb-16 10:30N 27°36' W 083°04'5 8.7
2018-Feb-16 09:57N 27°35' W 083°10'4 9.4
2018-Feb-16 09:30N 27°36' W 083°14'6 9.1
2018-Feb-16 08:52N 27°37' W 083°21'49011.7
2018-Feb-14 15:00N 25°18' W 092°06'26911.0 220 / 201023.110.8 21.018.024.0
2018-Feb-13 14:28N 27°30' W 096°28'611.4
2018-Feb-13 13:59N 27°33' W 096°33'511.3
2018-Feb-13 13:30N 27°35' W 096°39'611.4
2018-Feb-13 12:59N 27°39' W 096°44'511.4
2018-Feb-13 12:30N 27°41' W 096°49'611.7
2018-Feb-13 11:58N 27°45' W 096°55'510.6
2018-Feb-13 11:29N 27°49' W 096°59'5 9.8
2018-Feb-13 10:59N 27°50' W 097°05'5 9.9
2018-Feb-13 10:30N 27°49' W 097°10'510.4
2018-Feb-13 10:00N 27°49' W 097°16'510.3
2018-Feb-13 09:29N 27°49' W 097°22'3 5.9
2018-Feb-13 08:57N 27°49' W 097°25'  

Dump ship's entire track history